Canajoharie, New York
Current Conditions -  °F | °C
As of 4:35 PM on Friday 19 Dec 2014 (Local Time) from KNY0 Reporting Station
Overcast Overcast  
Wind Chill: 15°   Ceiling: 1600
Heat Index: 24°   Visibility: 10mi
Dew Point: 19°   Wind: 8mph
Humidity: 80%   Direction: 310°NW
Pressure: 30.09"   Gusts: NA
Location:  42.91°N, 74.57°W
Report Text: KNY0 192135Z AUTO 31007KT 10SM OVC016 M04/M07 A3009 RMK AO2 T10451075
Loading
Personal Weather Stations






























Interactive Weather Map New forecast layout! Learn more

10-Day Weather Forecast

Advertisements
Track Severe Weather on mobile